sensor_id;sensor_type;location;lat;lon;timestamp;P1;durP1;ratioP1;P2;durP2;ratioP2
73872;SDS011;62206;47.568;9.364;2024-02-23T00:01:04;3.35;;;2.92;;
73872;SDS011;62206;47.568;9.364;2024-02-23T00:03:32;4.15;;;3.78;;
73872;SDS011;62206;47.568;9.364;2024-02-23T00:06:00;3.95;;;3.58;;
73872;SDS011;62206;47.568;9.364;2024-02-23T00:08:27;4.32;;;3.92;;
73872;SDS011;62206;47.568;9.364;2024-02-23T00:10:55;4.28;;;3.88;;
73872;SDS011;62206;47.568;9.364;2024-02-23T00:13:22;4.35;;;3.95;;
73872;SDS011;62206;47.568;9.364;2024-02-23T00:15:49;4.30;;;3.90;;
73872;SDS011;62206;47.568;9.364;2024-02-23T00:18:17;4.47;;;4.07;;
73872;SDS011;62206;47.568;9.364;2024-02-23T00:20:43;4.15;;;3.75;;
73872;SDS011;62206;47.568;9.364;2024-02-23T00:23:11;4.63;;;4.22;;
73872;SDS011;62206;47.568;9.364;2024-02-23T00:25:38;4.00;;;3.10;;
73872;SDS011;62206;47.568;9.364;2024-02-23T00:28:06;3.50;;;3.20;;
73872;SDS011;62206;47.568;9.364;2024-02-23T00:30:33;4.28;;;3.88;;
73872;SDS011;62206;47.568;9.364;2024-02-23T00:33:01;4.20;;;3.80;;
73872;SDS011;62206;47.568;9.364;2024-02-23T00:35:27;4.55;;;4.15;;
73872;SDS011;62206;47.568;9.364;2024-02-23T00:37:55;3.83;;;3.30;;
73872;SDS011;62206;47.568;9.364;2024-02-23T00:40:21;4.05;;;3.65;;
73872;SDS011;62206;47.568;9.364;2024-02-23T00:42:49;4.18;;;3.78;;
73872;SDS011;62206;47.568;9.364;2024-02-23T00:45:18;4.28;;;3.88;;
73872;SDS011;62206;47.568;9.364;2024-02-23T00:47:45;3.70;;;3.40;;
73872;SDS011;62206;47.568;9.364;2024-02-23T00:50:13;4.40;;;4.00;;
73872;SDS011;62206;47.568;9.364;2024-02-23T00:52:40;3.80;;;3.50;;
73872;SDS011;62206;47.568;9.364;2024-02-23T00:55:07;5.20;;;4.80;;
73872;SDS011;62206;47.568;9.364;2024-02-23T00:57:34;4.18;;;3.78;;
73872;SDS011;62206;47.568;9.364;2024-02-23T01:00:02;4.22;;;3.83;;
73872;SDS011;62206;47.568;9.364;2024-02-23T01:02:32;4.03;;;3.63;;
73872;SDS011;62206;47.568;9.364;2024-02-23T01:04:59;4.18;;;3.78;;
73872;SDS011;62206;47.568;9.364;2024-02-23T01:07:26;3.67;;;3.35;;
73872;SDS011;62206;47.568;9.364;2024-02-23T01:09:53;4.60;;;4.20;;
73872;SDS011;62206;47.568;9.364;2024-02-23T01:12:20;3.83;;;3.50;;
73872;SDS011;62206;47.568;9.364;2024-02-23T01:14:47;4.43;;;4.03;;
73872;SDS011;62206;47.568;9.364;2024-02-23T01:17:14;4.22;;;3.83;;
73872;SDS011;62206;47.568;9.364;2024-02-23T01:19:43;4.22;;;3.83;;
73872;SDS011;62206;47.568;9.364;2024-02-23T01:22:10;4.38;;;3.97;;
73872;SDS011;62206;47.568;9.364;2024-02-23T01:24:37;4.60;;;4.20;;
73872;SDS011;62206;47.568;9.364;2024-02-23T01:27:04;4.32;;;3.92;;
73872;SDS011;62206;47.568;9.364;2024-02-23T01:29:31;4.78;;;4.38;;
73872;SDS011;62206;47.568;9.364;2024-02-23T01:31:58;4.22;;;3.83;;
73872;SDS011;62206;47.568;9.364;2024-02-23T01:34:25;4.47;;;4.07;;
73872;SDS011;62206;47.568;9.364;2024-02-23T01:36:53;4.32;;;3.92;;
73872;SDS011;62206;47.568;9.364;2024-02-23T01:39:20;4.60;;;3.78;;
73872;SDS011;62206;47.568;9.364;2024-02-23T01:41:47;4.35;;;3.90;;
73872;SDS011;62206;47.568;9.364;2024-02-23T01:44:14;4.97;;;4.57;;
73872;SDS011;62206;47.568;9.364;2024-02-23T01:46:42;4.40;;;4.00;;
73872;SDS011;62206;47.568;9.364;2024-02-23T01:49:09;4.80;;;4.32;;
73872;SDS011;62206;47.568;9.364;2024-02-23T01:51:36;4.00;;;3.67;;
73872;SDS011;62206;47.568;9.364;2024-02-23T01:54:05;3.80;;;3.45;;
73872;SDS011;62206;47.568;9.364;2024-02-23T01:56:32;4.43;;;4.03;;
73872;SDS011;62206;47.568;9.364;2024-02-23T01:58:59;4.65;;;4.25;;
73872;SDS011;62206;47.568;9.364;2024-02-23T02:01:28;4.60;;;4.20;;
73872;SDS011;62206;47.568;9.364;2024-02-23T02:03:55;4.57;;;4.18;;
73872;SDS011;62206;47.568;9.364;2024-02-23T02:06:23;4.70;;;4.30;;
73872;SDS011;62206;47.568;9.364;2024-02-23T02:08:50;4.55;;;4.15;;
73872;SDS011;62206;47.568;9.364;2024-02-23T02:11:18;4.25;;;3.85;;
73872;SDS011;62206;47.568;9.364;2024-02-23T02:13:46;4.40;;;4.00;;
73872;SDS011;62206;47.568;9.364;2024-02-23T02:16:12;4.60;;;4.05;;
73872;SDS011;62206;47.568;9.364;2024-02-23T02:18:39;4.38;;;3.97;;
73872;SDS011;62206;47.568;9.364;2024-02-23T02:21:07;4.43;;;4.03;;
73872;SDS011;62206;47.568;9.364;2024-02-23T02:23:34;4.55;;;4.15;;
73872;SDS011;62206;47.568;9.364;2024-02-23T02:26:02;4.20;;;3.80;;
73872;SDS011;62206;47.568;9.364;2024-02-23T02:28:31;4.40;;;4.00;;
73872;SDS011;62206;47.568;9.364;2024-02-23T02:30:59;5.03;;;4.63;;
73872;SDS011;62206;47.568;9.364;2024-02-23T02:33:26;4.90;;;4.50;;
73872;SDS011;62206;47.568;9.364;2024-02-23T02:35:53;4.90;;;4.50;;
73872;SDS011;62206;47.568;9.364;2024-02-23T02:38:20;4.70;;;4.30;;
73872;SDS011;62206;47.568;9.364;2024-02-23T02:40:47;4.57;;;4.18;;
73872;SDS011;62206;47.568;9.364;2024-02-23T02:43:14;4.80;;;4.30;;
73872;SDS011;62206;47.568;9.364;2024-02-23T02:45:43;4.90;;;4.50;;
73872;SDS011;62206;47.568;9.364;2024-02-23T02:48:10;5.10;;;4.70;;
73872;SDS011;62206;47.568;9.364;2024-02-23T02:50:37;4.03;;;3.15;;
73872;SDS011;62206;47.568;9.364;2024-02-23T02:53:04;5.15;;;4.75;;
73872;SDS011;62206;47.568;9.364;2024-02-23T02:55:31;4.35;;;3.95;;
73872;SDS011;62206;47.568;9.364;2024-02-23T02:57:59;4.75;;;4.35;;
73872;SDS011;62206;47.568;9.364;2024-02-23T03:00:25;5.05;;;4.55;;
73872;SDS011;62206;47.568;9.364;2024-02-23T03:02:54;4.95;;;4.43;;
73872;SDS011;62206;47.568;9.364;2024-02-23T03:05:21;4.88;;;4.35;;
73872;SDS011;62206;47.568;9.364;2024-02-23T03:07:48;5.07;;;4.68;;
73872;SDS011;62206;47.568;9.364;2024-02-23T03:10:15;5.28;;;4.80;;
73872;SDS011;62206;47.568;9.364;2024-02-23T03:12:42;5.90;;;4.15;;
73872;SDS011;62206;47.568;9.364;2024-02-23T03:15:09;4.80;;;4.38;;
73872;SDS011;62206;47.568;9.364;2024-02-23T03:17:36;4.63;;;4.10;;
73872;SDS011;62206;47.568;9.364;2024-02-23T03:20:05;4.32;;;3.92;;
73872;SDS011;62206;47.568;9.364;2024-02-23T03:22:36;4.93;;;4.43;;
73872;SDS011;62206;47.568;9.364;2024-02-23T03:25:03;4.72;;;4.05;;
73872;SDS011;62206;47.568;9.364;2024-02-23T03:27:33;5.75;;;4.57;;
73872;SDS011;62206;47.568;9.364;2024-02-23T03:30:02;4.78;;;4.30;;
73872;SDS011;62206;47.568;9.364;2024-02-23T03:32:29;4.85;;;4.45;;
73872;SDS011;62206;47.568;9.364;2024-02-23T03:35:01;4.07;;;3.67;;
73872;SDS011;62206;47.568;9.364;2024-02-23T03:37:29;4.75;;;4.28;;
73872;SDS011;62206;47.568;9.364;2024-02-23T03:39:57;4.50;;;4.10;;
73872;SDS011;62206;47.568;9.364;2024-02-23T03:42:24;5.53;;;4.82;;
73872;SDS011;62206;47.568;9.364;2024-02-23T03:44:51;4.78;;;4.18;;
73872;SDS011;62206;47.568;9.364;2024-02-23T03:47:19;4.72;;;4.32;;
73872;SDS011;62206;47.568;9.364;2024-02-23T03:49:45;4.60;;;4.05;;
73872;SDS011;62206;47.568;9.364;2024-02-23T03:52:12;4.80;;;4.40;;
73872;SDS011;62206;47.568;9.364;2024-02-23T03:54:41;4.95;;;4.45;;
73872;SDS011;62206;47.568;9.364;2024-02-23T03:57:08;4.78;;;4.38;;
73872;SDS011;62206;47.568;9.364;2024-02-23T03:59:35;5.13;;;4.57;;
73872;SDS011;62206;47.568;9.364;2024-02-23T04:02:03;5.10;;;4.50;;
73872;SDS011;62206;47.568;9.364;2024-02-23T04:04:30;4.78;;;4.22;;
73872;SDS011;62206;47.568;9.364;2024-02-23T04:06:57;6.20;;;4.32;;
73872;SDS011;62206;47.568;9.364;2024-02-23T04:09:24;5.03;;;4.60;;
73872;SDS011;62206;47.568;9.364;2024-02-23T04:11:52;5.03;;;4.53;;
73872;SDS011;62206;47.568;9.364;2024-02-23T04:14:19;5.07;;;4.68;;
73872;SDS011;62206;47.568;9.364;2024-02-23T04:16:46;4.72;;;4.20;;
73872;SDS011;62206;47.568;9.364;2024-02-23T04:19:13;4.82;;;4.32;;
73872;SDS011;62206;47.568;9.364;2024-02-23T04:21:40;4.50;;;4.00;;
73872;SDS011;62206;47.568;9.364;2024-02-23T04:24:07;5.57;;;5.07;;
73872;SDS011;62206;47.568;9.364;2024-02-23T04:26:34;5.13;;;4.72;;
73872;SDS011;62206;47.568;9.364;2024-02-23T04:29:03;5.22;;;4.72;;
73872;SDS011;62206;47.568;9.364;2024-02-23T04:31:30;4.75;;;4.25;;
73872;SDS011;62206;47.568;9.364;2024-02-23T04:33:57;7.65;;;6.82;;
73872;SDS011;62206;47.568;9.364;2024-02-23T04:36:24;6.65;;;6.05;;
73872;SDS011;62206;47.568;9.364;2024-02-23T04:38:51;6.70;;;5.25;;
73872;SDS011;62206;47.568;9.364;2024-02-23T04:41:19;4.72;;;3.97;;
73872;SDS011;62206;47.568;9.364;2024-02-23T04:43:46;4.38;;;3.97;;
73872;SDS011;62206;47.568;9.364;2024-02-23T04:46:15;4.95;;;4.55;;
73872;SDS011;62206;47.568;9.364;2024-02-23T04:48:42;4.97;;;4.55;;
73872;SDS011;62206;47.568;9.364;2024-02-23T04:51:10;5.25;;;4.82;;
73872;SDS011;62206;47.568;9.364;2024-02-23T04:53:37;4.90;;;4.50;;
73872;SDS011;62206;47.568;9.364;2024-02-23T04:56:04;5.15;;;4.75;;
73872;SDS011;62206;47.568;9.364;2024-02-23T04:58:32;5.00;;;4.30;;
73872;SDS011;62206;47.568;9.364;2024-02-23T05:00:59;5.70;;;4.43;;
73872;SDS011;62206;47.568;9.364;2024-02-23T05:03:28;5.63;;;5.10;;
73872;SDS011;62206;47.568;9.364;2024-02-23T05:05:54;5.10;;;4.60;;
73872;SDS011;62206;47.568;9.364;2024-02-23T05:08:22;4.22;;;3.83;;
73872;SDS011;62206;47.568;9.364;2024-02-23T05:10:49;6.10;;;4.22;;
73872;SDS011;62206;47.568;9.364;2024-02-23T05:13:16;5.53;;;5.03;;
73872;SDS011;62206;47.568;9.364;2024-02-23T05:15:43;5.50;;;5.00;;
73872;SDS011;62206;47.568;9.364;2024-02-23T05:18:10;5.60;;;4.95;;
73872;SDS011;62206;47.568;9.364;2024-02-23T05:20:38;5.05;;;4.65;;
73872;SDS011;62206;47.568;9.364;2024-02-23T05:23:06;4.95;;;4.43;;
73872;SDS011;62206;47.568;9.364;2024-02-23T05:25:33;4.43;;;4.03;;
73872;SDS011;62206;47.568;9.364;2024-02-23T05:28:00;4.97;;;4.50;;
73872;SDS011;62206;47.568;9.364;2024-02-23T05:30:27;5.13;;;4.63;;
73872;SDS011;62206;47.568;9.364;2024-02-23T05:32:56;6.03;;;4.90;;
73872;SDS011;62206;47.568;9.364;2024-02-23T05:35:23;4.88;;;4.38;;
73872;SDS011;62206;47.568;9.364;2024-02-23T05:37:52;5.80;;;5.00;;
73872;SDS011;62206;47.568;9.364;2024-02-23T05:40:19;5.78;;;5.28;;
73872;SDS011;62206;47.568;9.364;2024-02-23T05:42:46;4.78;;;4.18;;
73872;SDS011;62206;47.568;9.364;2024-02-23T05:45:13;5.22;;;4.72;;
73872;SDS011;62206;47.568;9.364;2024-02-23T05:47:40;5.00;;;4.50;;
73872;SDS011;62206;47.568;9.364;2024-02-23T05:50:07;5.20;;;4.05;;
73872;SDS011;62206;47.568;9.364;2024-02-23T05:52:36;4.80;;;4.40;;
73872;SDS011;62206;47.568;9.364;2024-02-23T05:55:04;6.32;;;5.28;;
73872;SDS011;62206;47.568;9.364;2024-02-23T05:57:31;6.47;;;5.88;;
73872;SDS011;62206;47.568;9.364;2024-02-23T05:59:59;5.70;;;4.80;;
73872;SDS011;62206;47.568;9.364;2024-02-23T06:02:25;5.55;;;5.05;;
73872;SDS011;62206;47.568;9.364;2024-02-23T06:04:52;5.55;;;4.88;;
73872;SDS011;62206;47.568;9.364;2024-02-23T06:07:20;5.53;;;4.70;;
73872;SDS011;62206;47.568;9.364;2024-02-23T06:09:54;7.55;;;6.57;;
73872;SDS011;62206;47.568;9.364;2024-02-23T06:12:23;6.80;;;6.18;;
73872;SDS011;62206;47.568;9.364;2024-02-23T06:14:50;6.03;;;5.43;;
73872;SDS011;62206;47.568;9.364;2024-02-23T06:17:17;7.15;;;6.45;;
73872;SDS011;62206;47.568;9.364;2024-02-23T06:19:45;5.93;;;5.32;;
73872;SDS011;62206;47.568;9.364;2024-02-23T06:22:11;11.55;;;7.50;;
73872;SDS011;62206;47.568;9.364;2024-02-23T06:24:40;10.38;;;6.75;;
73872;SDS011;62206;47.568;9.364;2024-02-23T06:27:07;10.82;;;7.25;;
73872;SDS011;62206;47.568;9.364;2024-02-23T06:29:35;8.07;;;6.63;;
73872;SDS011;62206;47.568;9.364;2024-02-23T06:32:02;14.90;;;8.05;;
73872;SDS011;62206;47.568;9.364;2024-02-23T06:34:30;13.95;;;8.90;;
73872;SDS011;62206;47.568;9.364;2024-02-23T06:36:57;15.60;;;8.15;;
73872;SDS011;62206;47.568;9.364;2024-02-23T06:39:24;10.38;;;6.35;;
73872;SDS011;62206;47.568;9.364;2024-02-23T06:41:52;10.55;;;7.30;;
73872;SDS011;62206;47.568;9.364;2024-02-23T06:44:18;8.82;;;6.00;;
73872;SDS011;62206;47.568;9.364;2024-02-23T06:46:47;7.85;;;5.35;;
73872;SDS011;62206;47.568;9.364;2024-02-23T06:49:14;6.88;;;5.10;;
73872;SDS011;62206;47.568;9.364;2024-02-23T06:51:41;5.55;;;5.05;;
73872;SDS011;62206;47.568;9.364;2024-02-23T06:54:08;5.80;;;5.30;;
73872;SDS011;62206;47.568;9.364;2024-02-23T06:56:35;5.80;;;5.20;;
73872;SDS011;62206;47.568;9.364;2024-02-23T06:59:02;6.05;;;5.28;;
73872;SDS011;62206;47.568;9.364;2024-02-23T07:01:29;6.28;;;5.60;;
73872;SDS011;62206;47.568;9.364;2024-02-23T07:04:01;6.38;;;5.78;;
73872;SDS011;62206;47.568;9.364;2024-02-23T07:06:28;5.57;;;4.97;;
73872;SDS011;62206;47.568;9.364;2024-02-23T07:08:56;6.10;;;5.18;;
73872;SDS011;62206;47.568;9.364;2024-02-23T07:11:23;6.90;;;5.40;;
73872;SDS011;62206;47.568;9.364;2024-02-23T07:13:50;6.03;;;5.40;;
73872;SDS011;62206;47.568;9.364;2024-02-23T07:16:17;5.82;;;5.00;;
73872;SDS011;62206;47.568;9.364;2024-02-23T07:18:44;6.32;;;5.72;;
73872;SDS011;62206;47.568;9.364;2024-02-23T07:21:12;6.80;;;5.70;;
73872;SDS011;62206;47.568;9.364;2024-02-23T07:23:39;5.93;;;5.32;;
73872;SDS011;62206;47.568;9.364;2024-02-23T07:26:07;5.88;;;5.38;;
73872;SDS011;62206;47.568;9.364;2024-02-23T07:28:34;6.25;;;5.50;;
73872;SDS011;62206;47.568;9.364;2024-02-23T07:31:00;6.97;;;6.28;;
73872;SDS011;62206;47.568;9.364;2024-02-23T07:33:28;8.85;;;5.93;;
73872;SDS011;62206;47.568;9.364;2024-02-23T07:35:54;5.40;;;4.90;;
73872;SDS011;62206;47.568;9.364;2024-02-23T07:38:22;4.78;;;4.28;;
73872;SDS011;62206;47.568;9.364;2024-02-23T07:40:50;5.97;;;5.35;;
73872;SDS011;62206;47.568;9.364;2024-02-23T07:43:17;6.45;;;5.07;;
73872;SDS011;62206;47.568;9.364;2024-02-23T07:45:43;6.28;;;5.68;;
73872;SDS011;62206;47.568;9.364;2024-02-23T07:48:11;6.13;;;5.53;;
73872;SDS011;62206;47.568;9.364;2024-02-23T07:50:38;6.05;;;5.50;;
73872;SDS011;62206;47.568;9.364;2024-02-23T07:53:05;5.60;;;4.90;;
73872;SDS011;62206;47.568;9.364;2024-02-23T07:55:33;5.28;;;4.78;;
73872;SDS011;62206;47.568;9.364;2024-02-23T07:58:00;4.57;;;3.63;;
73872;SDS011;62206;47.568;9.364;2024-02-23T08:00:27;5.53;;;4.65;;
73872;SDS011;62206;47.568;9.364;2024-02-23T08:02:55;5.13;;;4.63;;
73872;SDS011;62206;47.568;9.364;2024-02-23T08:05:23;7.00;;;6.30;;
73872;SDS011;62206;47.568;9.364;2024-02-23T08:07:50;6.55;;;5.95;;
73872;SDS011;62206;47.568;9.364;2024-02-23T08:10:17;5.55;;;5.00;;
73872;SDS011;62206;47.568;9.364;2024-02-23T08:12:46;5.97;;;5.35;;
73872;SDS011;62206;47.568;9.364;2024-02-23T08:15:13;5.82;;;5.13;;
73872;SDS011;62206;47.568;9.364;2024-02-23T08:17:40;5.78;;;5.18;;
73872;SDS011;62206;47.568;9.364;2024-02-23T08:20:07;7.65;;;6.20;;
73872;SDS011;62206;47.568;9.364;2024-02-23T08:22:35;6.65;;;5.90;;
73872;SDS011;62206;47.568;9.364;2024-02-23T08:25:02;6.40;;;5.80;;
73872;SDS011;62206;47.568;9.364;2024-02-23T08:27:29;5.35;;;4.43;;
73872;SDS011;62206;47.568;9.364;2024-02-23T08:29:57;5.45;;;4.95;;
73872;SDS011;62206;47.568;9.364;2024-02-23T08:32:25;6.95;;;5.57;;
73872;SDS011;62206;47.568;9.364;2024-02-23T08:34:52;6.07;;;5.20;;
73872;SDS011;62206;47.568;9.364;2024-02-23T08:37:25;17.83;;;9.32;;
73872;SDS011;62206;47.568;9.364;2024-02-23T08:39:51;45.13;;;19.77;;
73872;SDS011;62206;47.568;9.364;2024-02-23T08:42:18;34.83;;;16.77;;
73872;SDS011;62206;47.568;9.364;2024-02-23T08:44:46;19.45;;;11.73;;
73872;SDS011;62206;47.568;9.364;2024-02-23T08:47:14;8.20;;;6.13;;
73872;SDS011;62206;47.568;9.364;2024-02-23T08:49:41;6.65;;;5.80;;
73872;SDS011;62206;47.568;9.364;2024-02-23T08:52:08;7.88;;;5.53;;
73872;SDS011;62206;47.568;9.364;2024-02-23T08:54:35;6.13;;;5.55;;
73872;SDS011;62206;47.568;9.364;2024-02-23T08:57:02;6.05;;;5.00;;
73872;SDS011;62206;47.568;9.364;2024-02-23T08:59:30;5.55;;;5.05;;
73872;SDS011;62206;47.568;9.364;2024-02-23T09:01:57;6.32;;;5.45;;
73872;SDS011;62206;47.568;9.364;2024-02-23T09:04:25;6.38;;;5.78;;
73872;SDS011;62206;47.568;9.364;2024-02-23T09:06:53;6.43;;;5.82;;
73872;SDS011;62206;47.568;9.364;2024-02-23T09:09:20;6.75;;;5.78;;
73872;SDS011;62206;47.568;9.364;2024-02-23T09:11:47;6.10;;;5.50;;
73872;SDS011;62206;47.568;9.364;2024-02-23T09:14:14;6.30;;;5.53;;
73872;SDS011;62206;47.568;9.364;2024-02-23T09:16:41;6.30;;;5.00;;
73872;SDS011;62206;47.568;9.364;2024-02-23T09:19:08;5.55;;;4.85;;
73872;SDS011;62206;47.568;9.364;2024-02-23T09:21:37;6.25;;;5.65;;
73872;SDS011;62206;47.568;9.364;2024-02-23T09:24:04;6.55;;;5.70;;
73872;SDS011;62206;47.568;9.364;2024-02-23T09:26:32;6.72;;;5.45;;
73872;SDS011;62206;47.568;9.364;2024-02-23T09:29:01;6.65;;;5.65;;
73872;SDS011;62206;47.568;9.364;2024-02-23T09:31:34;8.32;;;5.63;;
73872;SDS011;62206;47.568;9.364;2024-02-23T09:34:02;6.18;;;5.57;;
73872;SDS011;62206;47.568;9.364;2024-02-23T09:36:29;6.88;;;5.40;;
73872;SDS011;62206;47.568;9.364;2024-02-23T09:38:57;6.35;;;5.75;;
73872;SDS011;62206;47.568;9.364;2024-02-23T09:41:25;6.22;;;5.57;;
73872;SDS011;62206;47.568;9.364;2024-02-23T09:43:52;6.15;;;5.53;;
73872;SDS011;62206;47.568;9.364;2024-02-23T09:46:18;5.65;;;5.05;;
73872;SDS011;62206;47.568;9.364;2024-02-23T09:48:47;6.40;;;5.65;;
73872;SDS011;62206;47.568;9.364;2024-02-23T09:51:15;5.90;;;5.30;;
73872;SDS011;62206;47.568;9.364;2024-02-23T09:53:43;5.13;;;4.60;;
73872;SDS011;62206;47.568;9.364;2024-02-23T09:56:12;7.07;;;5.30;;
73872;SDS011;62206;47.568;9.364;2024-02-23T09:58:42;5.72;;;4.72;;
73872;SDS011;62206;47.568;9.364;2024-02-23T10:01:09;5.93;;;5.32;;
73872;SDS011;62206;47.568;9.364;2024-02-23T10:03:37;5.90;;;5.40;;
73872;SDS011;62206;47.568;9.364;2024-02-23T10:06:04;5.90;;;5.22;;
73872;SDS011;62206;47.568;9.364;2024-02-23T10:08:31;6.25;;;4.88;;
73872;SDS011;62206;47.568;9.364;2024-02-23T10:11:00;7.10;;;5.07;;
73872;SDS011;62206;47.568;9.364;2024-02-23T10:13:29;7.25;;;5.13;;
73872;SDS011;62206;47.568;9.364;2024-02-23T10:15:56;7.10;;;4.35;;
73872;SDS011;62206;47.568;9.364;2024-02-23T10:18:23;7.05;;;4.95;;
73872;SDS011;62206;47.568;9.364;2024-02-23T10:20:50;8.07;;;5.70;;
73872;SDS011;62206;47.568;9.364;2024-02-23T10:23:18;6.78;;;6.15;;
73872;SDS011;62206;47.568;9.364;2024-02-23T10:25:46;6.35;;;5.30;;
73872;SDS011;62206;47.568;9.364;2024-02-23T10:28:12;6.68;;;5.20;;
73872;SDS011;62206;47.568;9.364;2024-02-23T10:30:41;6.18;;;5.18;;
73872;SDS011;62206;47.568;9.364;2024-02-23T10:33:10;15.25;;;8.93;;
73872;SDS011;62206;47.568;9.364;2024-02-23T10:35:38;14.00;;;7.30;;
73872;SDS011;62206;47.568;9.364;2024-02-23T10:38:07;12.77;;;8.43;;
73872;SDS011;62206;47.568;9.364;2024-02-23T10:40:35;10.43;;;5.88;;
73872;SDS011;62206;47.568;9.364;2024-02-23T10:43:06;7.10;;;5.68;;
73872;SDS011;62206;47.568;9.364;2024-02-23T10:45:36;8.95;;;5.55;;
73872;SDS011;62206;47.568;9.364;2024-02-23T10:48:06;7.45;;;5.80;;
73872;SDS011;62206;47.568;9.364;2024-02-23T10:50:35;7.88;;;5.43;;
73872;SDS011;62206;47.568;9.364;2024-02-23T10:53:02;6.25;;;5.60;;
73872;SDS011;62206;47.568;9.364;2024-02-23T10:55:30;7.75;;;5.75;;
73872;SDS011;62206;47.568;9.364;2024-02-23T10:57:58;8.50;;;6.57;;
73872;SDS011;62206;47.568;9.364;2024-02-23T11:00:25;13.88;;;8.10;;
73872;SDS011;62206;47.568;9.364;2024-02-23T11:02:52;11.85;;;7.15;;
73872;SDS011;62206;47.568;9.364;2024-02-23T11:05:22;10.07;;;6.82;;
73872;SDS011;62206;47.568;9.364;2024-02-23T11:07:49;7.82;;;5.80;;
73872;SDS011;62206;47.568;9.364;2024-02-23T11:10:16;8.23;;;5.13;;
73872;SDS011;62206;47.568;9.364;2024-02-23T11:12:56;6.22;;;5.20;;
73872;SDS011;62206;47.568;9.364;2024-02-23T11:15:25;8.68;;;5.70;;
73872;SDS011;62206;47.568;9.364;2024-02-23T11:17:53;8.52;;;6.60;;
73872;SDS011;62206;47.568;9.364;2024-02-23T11:20:21;8.15;;;5.30;;
73872;SDS011;62206;47.568;9.364;2024-02-23T11:22:51;6.90;;;5.80;;
73872;SDS011;62206;47.568;9.364;2024-02-23T11:25:19;5.45;;;4.90;;
73872;SDS011;62206;47.568;9.364;2024-02-23T11:27:49;8.23;;;6.07;;
73872;SDS011;62206;47.568;9.364;2024-02-23T11:30:17;9.15;;;6.40;;
73872;SDS011;62206;47.568;9.364;2024-02-23T11:32:45;7.45;;;5.38;;
73872;SDS011;62206;47.568;9.364;2024-02-23T11:35:14;7.43;;;5.38;;
73872;SDS011;62206;47.568;9.364;2024-02-23T11:37:49;6.82;;;5.00;;
73872;SDS011;62206;47.568;9.364;2024-02-23T11:40:23;9.73;;;6.55;;
73872;SDS011;62206;47.568;9.364;2024-02-23T11:42:49;8.13;;;6.22;;
73872;SDS011;62206;47.568;9.364;2024-02-23T11:45:17;6.40;;;5.80;;
73872;SDS011;62206;47.568;9.364;2024-02-23T11:47:44;8.20;;;5.38;;
73872;SDS011;62206;47.568;9.364;2024-02-23T11:50:11;5.93;;;5.28;;
73872;SDS011;62206;47.568;9.364;2024-02-23T11:52:40;6.53;;;5.90;;
73872;SDS011;62206;47.568;9.364;2024-02-23T11:55:09;6.28;;;5.53;;
73872;SDS011;62206;47.568;9.364;2024-02-23T11:57:36;6.57;;;5.00;;
73872;SDS011;62206;47.568;9.364;2024-02-23T12:00:03;7.20;;;5.43;;
73872;SDS011;62206;47.568;9.364;2024-02-23T12:02:32;6.63;;;5.15;;
73872;SDS011;62206;47.568;9.364;2024-02-23T12:04:59;5.80;;;4.80;;
73872;SDS011;62206;47.568;9.364;2024-02-23T12:07:26;6.55;;;4.50;;
73872;SDS011;62206;47.568;9.364;2024-02-23T12:09:55;5.90;;;5.18;;
73872;SDS011;62206;47.568;9.364;2024-02-23T12:12:23;5.20;;;4.05;;
73872;SDS011;62206;47.568;9.364;2024-02-23T12:14:51;12.18;;;6.50;;
73872;SDS011;62206;47.568;9.364;2024-02-23T12:17:19;6.65;;;5.03;;
73872;SDS011;62206;47.568;9.364;2024-02-23T12:19:46;6.78;;;5.53;;
73872;SDS011;62206;47.568;9.364;2024-02-23T12:22:14;8.05;;;4.97;;
73872;SDS011;62206;47.568;9.364;2024-02-23T12:24:42;6.93;;;5.35;;
73872;SDS011;62206;47.568;9.364;2024-02-23T12:27:08;10.63;;;6.43;;
73872;SDS011;62206;47.568;9.364;2024-02-23T12:29:37;7.50;;;5.15;;
73872;SDS011;62206;47.568;9.364;2024-02-23T12:32:04;7.35;;;5.80;;
73872;SDS011;62206;47.568;9.364;2024-02-23T12:34:32;6.60;;;5.47;;
73872;SDS011;62206;47.568;9.364;2024-02-23T12:36:58;15.23;;;9.02;;
73872;SDS011;62206;47.568;9.364;2024-02-23T12:39:26;8.82;;;5.28;;
73872;SDS011;62206;47.568;9.364;2024-02-23T12:41:53;5.85;;;4.85;;
73872;SDS011;62206;47.568;9.364;2024-02-23T12:44:22;7.88;;;5.95;;
73872;SDS011;62206;47.568;9.364;2024-02-23T12:46:51;8.77;;;5.15;;
73872;SDS011;62206;47.568;9.364;2024-02-23T12:49:17;9.07;;;5.47;;
73872;SDS011;62206;47.568;9.364;2024-02-23T12:51:44;6.40;;;4.63;;
73872;SDS011;62206;47.568;9.364;2024-02-23T12:54:12;5.30;;;4.80;;
73872;SDS011;62206;47.568;9.364;2024-02-23T12:56:38;6.35;;;5.63;;
73872;SDS011;62206;47.568;9.364;2024-02-23T12:59:05;6.07;;;5.47;;
73872;SDS011;62206;47.568;9.364;2024-02-23T13:01:33;6.30;;;4.88;;
73872;SDS011;62206;47.568;9.364;2024-02-23T13:04:03;5.35;;;4.85;;
73872;SDS011;62206;47.568;9.364;2024-02-23T13:06:36;4.88;;;4.43;;
73872;SDS011;62206;47.568;9.364;2024-02-23T13:09:03;5.18;;;4.38;;
73872;SDS011;62206;47.568;9.364;2024-02-23T13:11:30;5.35;;;4.85;;
73872;SDS011;62206;47.568;9.364;2024-02-23T13:13:58;7.35;;;4.80;;
73872;SDS011;62206;47.568;9.364;2024-02-23T13:16:24;5.00;;;4.50;;
73872;SDS011;62206;47.568;9.364;2024-02-23T13:18:51;5.18;;;4.07;;
73872;SDS011;62206;47.568;9.364;2024-02-23T13:21:20;6.38;;;4.38;;
73872;SDS011;62206;47.568;9.364;2024-02-23T13:23:47;5.18;;;4.63;;
73872;SDS011;62206;47.568;9.364;2024-02-23T13:26:14;7.10;;;4.70;;
73872;SDS011;62206;47.568;9.364;2024-02-23T13:28:41;4.82;;;4.32;;
73872;SDS011;62206;47.568;9.364;2024-02-23T13:31:08;4.82;;;3.92;;
73872;SDS011;62206;47.568;9.364;2024-02-23T13:33:35;7.40;;;4.68;;
73872;SDS011;62206;47.568;9.364;2024-02-23T13:36:03;5.65;;;4.50;;
73872;SDS011;62206;47.568;9.364;2024-02-23T13:38:32;4.95;;;4.45;;
73872;SDS011;62206;47.568;9.364;2024-02-23T13:41:03;5.55;;;5.03;;
73872;SDS011;62206;47.568;9.364;2024-02-23T13:43:31;6.00;;;4.22;;
73872;SDS011;62206;47.568;9.364;2024-02-23T13:45:58;6.45;;;4.47;;
73872;SDS011;62206;47.568;9.364;2024-02-23T13:48:26;6.50;;;4.80;;
73872;SDS011;62206;47.568;9.364;2024-02-23T13:50:52;6.68;;;4.97;;
73872;SDS011;62206;47.568;9.364;2024-02-23T13:53:19;5.38;;;4.88;;
73872;SDS011;62206;47.568;9.364;2024-02-23T13:55:48;4.50;;;3.90;;
73872;SDS011;62206;47.568;9.364;2024-02-23T13:58:15;6.20;;;4.65;;
73872;SDS011;62206;47.568;9.364;2024-02-23T14:00:42;5.75;;;5.25;;
73872;SDS011;62206;47.568;9.364;2024-02-23T14:03:10;5.97;;;4.68;;
73872;SDS011;62206;47.568;9.364;2024-02-23T14:05:42;5.20;;;3.95;;
73872;SDS011;62206;47.568;9.364;2024-02-23T14:08:10;5.88;;;4.95;;
73872;SDS011;62206;47.568;9.364;2024-02-23T14:10:37;4.55;;;4.15;;
73872;SDS011;62206;47.568;9.364;2024-02-23T14:13:06;5.30;;;4.10;;
73872;SDS011;62206;47.568;9.364;2024-02-23T14:15:33;4.60;;;3.83;;
73872;SDS011;62206;47.568;9.364;2024-02-23T14:18:00;5.85;;;5.25;;
73872;SDS011;62206;47.568;9.364;2024-02-23T14:20:27;6.43;;;4.85;;
73872;SDS011;62206;47.568;9.364;2024-02-23T14:22:55;7.53;;;5.38;;
73872;SDS011;62206;47.568;9.364;2024-02-23T14:25:21;4.85;;;4.35;;
73872;SDS011;62206;47.568;9.364;2024-02-23T14:27:48;5.10;;;4.70;;
73872;SDS011;62206;47.568;9.364;2024-02-23T14:30:17;5.20;;;4.65;;
73872;SDS011;62206;47.568;9.364;2024-02-23T14:32:44;5.35;;;4.22;;
73872;SDS011;62206;47.568;9.364;2024-02-23T14:35:11;4.30;;;3.90;;
73872;SDS011;62206;47.568;9.364;2024-02-23T14:37:38;4.75;;;4.10;;
73872;SDS011;62206;47.568;9.364;2024-02-23T14:40:06;5.05;;;4.55;;
73872;SDS011;62206;47.568;9.364;2024-02-23T14:42:33;6.05;;;3.88;;
73872;SDS011;62206;47.568;9.364;2024-02-23T14:45:02;5.18;;;4.60;;
73872;SDS011;62206;47.568;9.364;2024-02-23T14:47:30;4.97;;;4.47;;
73872;SDS011;62206;47.568;9.364;2024-02-23T14:49:57;5.57;;;5.00;;